Terminal Aerodrome Forecast
Issued by NWS Huntsville, AL

Home | Current Version | Previous Version | Text Only | Print | Product List | Glossary On
Versions: 1 2 3 4 5 6 7 8 9 10 11 12 13 14 15 16 17 18
000
FTUS44 KHUN 302322
TAFHSV
TAF
KHSV 302322Z 3100/3124 20010G25KT P6SM VCTS BKN050CB OVC200
      TEMPO 3102/3104 VRB15G30KT 2SM TSRA BR OVC015CB
     FM310400 21012KT 5SM -TSRA BR BKN035CB
     FM310700 26006KT P6SM BKN050
     FM311500 27010G20KT P6SM BKN040=

USA.gov is the U.S. government's official web portal to all federal, state and local government web resources and services.